CEST,Max TemperatureF,Mean TemperatureF,Min TemperatureF,Max Dew PointF,MeanDew PointF,Min DewpointF,Max Humidity, Mean Humidity, Min Humidity, Max Sea Level PressureIn, Mean Sea Level PressureIn, Min Sea Level PressureIn, Max VisibilityMiles, Mean VisibilityMiles, Min VisibilityMiles, Max Wind SpeedMPH, Mean Wind SpeedMPH, Max Gust SpeedMPH,PrecipitationIn, CloudCover, Events, WindDirDegrees
2012-9-1,87,78,68,77,69,63,94,80,66,30.01,29.93,29.86,6,5,0,39,7,51,0.00,3,Rain-Thunderstorm,276
2012-9-2,87,76,66,73,69,59,94,81,58,30.04,30.00,29.95,6,6,6,16,5,,0.00,1,,85
2012-9-3,89,80,71,70,67,63,94,71,49,30.01,29.95,29.89,6,6,6,14,5,,0.00,2,Rain-Thunderstorm,35
2012-9-4,82,75,68,72,68,64,94,79,61,29.95,29.90,29.89,6,6,6,18,6,,0.00,2,,271
2012-9-5,82,75,68,72,67,66,94,78,61,29.98,29.95,29.92,6,6,6,22,7,,0.00,3,Rain,279
2012-9-6,82,76,69,70,68,64,94,77,65,30.04,29.99,29.95,6,6,1,21,11,33,0.00,3,Rain,280
2012-9-7,80,73,66,70,67,63,88,76,65,30.09,30.05,30.04,6,6,6,14,5,,0.00,3,Rain,255
2012-9-8,82,74,66,73,68,63,94,79,69,30.09,30.05,30.01,6,6,6,16,4,,0.00,2,,247
2012-9-9,82,74,66,72,66,57,94,77,61,30.06,30.04,30.01,6,6,4,16,6,,0.00,1,,253
2012-9-10,82,72,62,70,65,57,94,75,65,30.06,30.04,30.01,6,6,6,14,5,,0.00,1,,255
2012-9-11,82,72,62,70,64,57,88,74,61,30.06,30.03,30.01,6,6,6,16,5,,0.00,1,,262
2012-9-12,80,70,60,68,63,55,88,74,61,30.01,29.93,29.83,6,6,6,13,4,,0.00,1,,253
2012-9-13,84,72,59,68,63,54,94,79,45,29.83,29.65,29.59,6,5,1,20,5,28,0.00,4,Rain-Thunderstorm,274
2012-9-14,78,69,60,64,59,52,94,75,41,29.74,29.63,29.56,6,5,0,17,7,,0.00,4,Rain-Thunderstorm,242
2012-9-15,77,68,59,61,57,52,94,72,41,29.83,29.74,29.71,6,6,6,14,7,,0.00,2,Rain-Thunderstorm,71
2012-9-16,77,68,59,63,59,55,88,72,54,29.92,29.87,29.83,6,6,6,17,7,,0.00,1,,305
2012-9-17,77,68,59,68,61,57,94,78,57,30.01,29.96,29.92,6,6,6,14,6,,0.00,1,,170
2012-9-18,77,68,60,66,61,54,94,77,60,30.01,29.98,29.95,6,6,6,17,6,,0.00,1,,175
2012-9-19,77,68,59,66,61,55,94,78,65,29.98,29.93,29.89,6,6,6,17,7,,0.00,1,,242
2012-9-20,77,70,62,68,64,57,94,79,69,30.09,29.98,29.89,6,6,6,15,6,,0.00,1,,259
2012-9-21,77,68,57,66,60,48,94,74,57,30.15,30.12,30.09,6,6,6,12,6,,0.00,1,,18
2012-9-22,77,65,53,61,54,48,88,68,41,30.12,30.09,30.06,,,,10,6,,0.00,,,109
2012-9-23,87,72,57,66,58,50,88,65,40,30.06,30.03,29.98,6,6,6,12,7,,0.00,1,,86
2012-9-24,91,76,60,66,60,55,88,63,29,29.98,29.91,29.86,6,6,6,8,5,,0.00,2,,91
2012-9-25,78,76,73,73,71,68,94,85,69,30.01,29.96,29.92,6,6,4,14,9,,0.00,3,,248
2012-9-26,89,76,62,68,61,54,94,63,29,30.04,30.00,29.98,6,6,6,15,7,,0.00,1,,75
2012-9-27,89,78,66,66,58,50,78,53,27,30.04,30.01,29.98,,,,13,9,,0.00,,,53
2012-9-28,91,76,62,66,56,48,64,47,26,30.04,30.03,30.01,6,6,6,13,8,,0.00,1,,90
2012-9-29,95,80,66,64,53,48,69,42,21,30.04,30.01,29.95,6,6,6,21,12,,0.00,1,,80
2012-9-30,91,80,69,72,63,50,89,59,24,30.04,29.99,29.95,6,6,6,16,10,,0.00,1,Rain,77